Time;durP1;ratioP1;P1;durP2;ratioP2;P2;SDS_P1;SDS_P2;PMS_P1;PMS_P2;Temp;Humidity;BMP_temperature;BMP_pressure;BME280_temperature;BME280_humidity;BME280_pressure;Samples;Min_cycle;Max_cycle;Signal;HPM_P1;HPM_P2
2021/11/25 00:02:06;;;;;;;11.45;8.27;;;;;;;;;;5013017;28;20493;-51
2021/11/25 00:04:32;;;;;;;11.52;8.90;;;;;;;;;;5013309;28;20589;-51
2021/11/25 00:06:58;;;;;;;10.37;8.10;;;;;;;;;;5013074;28;20295;-49
2021/11/25 00:09:24;;;;;;;9.68;8.68;;;;;;;;;;5012288;28;20986;-51
2021/11/25 00:11:50;;;;;;;8.93;8.00;;;;;;;;;;5013024;28;20172;-48
2021/11/25 00:14:16;;;;;;;10.07;8.63;;;;;;;;;;4995319;28;20832;-49
2021/11/25 00:16:42;;;;;;;17.25;9.45;;;;;;;;;;5012403;28;20446;-49
2021/11/25 00:19:09;;;;;;;11.10;8.43;;;;;;;;;;5012086;28;20185;-48
2021/11/25 00:21:35;;;;;;;13.45;8.30;;;;;;;;;;5012660;28;20200;-49
2021/11/25 00:24:04;;;;;;;13.98;9.20;;;;;;;;;;5012738;28;20168;-49
2021/11/25 00:26:29;;;;;;;11.95;9.18;;;;;;;;;;5012667;28;20161;-50
2021/11/25 00:28:55;;;;;;;13.17;8.50;;;;;;;;;;5012395;28;20188;-48
2021/11/25 00:31:21;;;;;;;13.87;8.90;;;;;;;;;;5012970;28;20407;-49
2021/11/25 00:33:47;;;;;;;14.00;8.67;;;;;;;;;;5012531;28;20408;-48
2021/11/25 00:36:13;;;;;;;11.10;9.23;;;;;;;;;;5012524;28;20430;-49
2021/11/25 00:38:39;;;;;;;11.20;9.13;;;;;;;;;;5011840;28;20438;-48
2021/11/25 00:41:05;;;;;;;11.07;8.83;;;;;;;;;;5012813;28;20451;-49
2021/11/25 00:43:31;;;;;;;16.00;9.60;;;;;;;;;;5012511;28;20954;-48
2021/11/25 00:45:57;;;;;;;9.10;7.40;;;;;;;;;;5012365;28;20410;-50
2021/11/25 00:48:23;;;;;;;12.90;9.70;;;;;;;;;;5011728;28;20970;-49
2021/11/25 00:50:49;;;;;;;12.98;8.68;;;;;;;;;;5012351;28;20403;-51
2021/11/25 00:53:15;;;;;;;16.63;9.38;;;;;;;;;;5012220;28;20164;-49
2021/11/25 00:55:42;;;;;;;10.10;9.02;;;;;;;;;;5012254;28;20234;-51
2021/11/25 00:58:08;;;;;;;13.20;10.32;;;;;;;;;;5011534;28;20679;-49
2021/11/25 01:00:34;;;;;;;17.92;10.52;;;;;;;;;;5012030;28;20660;-49
2021/11/25 01:03:00;;;;;;;11.38;8.95;;;;;;;;;;5012149;28;20255;-50
2021/11/25 01:05:26;;;;;;;11.73;9.15;;;;;;;;;;5012147;28;20243;-51
2021/11/25 01:07:52;;;;;;;12.40;9.65;;;;;;;;;;5011466;28;20192;-50
2021/11/25 01:10:21;;;;;;;11.45;8.88;;;;;;;;;;5012052;28;20648;-49
2021/11/25 01:12:47;;;;;;;15.38;10.40;;;;;;;;;;5012116;28;20168;-49
2021/11/25 01:15:14;;;;;;;15.20;9.98;;;;;;;;;;5011917;28;20675;-49
2021/11/25 01:17:40;;;;;;;16.48;9.70;;;;;;;;;;5011383;28;20671;-48
2021/11/25 01:20:08;;;;;;;12.82;9.07;;;;;;;;;;5012001;28;20181;-48
2021/11/25 01:22:34;;;;;;;13.70;9.65;;;;;;;;;;5012001;28;20683;-49
2021/11/25 01:25:00;;;;;;;13.15;10.07;;;;;;;;;;5011958;28;20172;-48
2021/11/25 01:27:26;;;;;;;14.67;9.47;;;;;;;;;;5011415;28;20243;-50
2021/11/25 01:29:52;;;;;;;11.17;9.60;;;;;;;;;;5014036;28;20446;-49
2021/11/25 01:32:18;;;;;;;33.17;10.23;;;;;;;;;;5015935;28;20404;-50
2021/11/25 01:34:44;;;;;;;17.00;9.77;;;;;;;;;;5016104;28;20180;-51
2021/11/25 01:37:10;;;;;;;12.27;9.97;;;;;;;;;;5015815;28;20414;-50
2021/11/25 01:39:36;;;;;;;17.48;9.45;;;;;;;;;;5015108;28;20426;-49
2021/11/25 01:42:02;;;;;;;13.87;10.77;;;;;;;;;;5015729;28;20192;-49
2021/11/25 01:44:28;;;;;;;12.25;9.90;;;;;;;;;;5015626;28;20410;-49
2021/11/25 01:46:54;;;;;;;11.80;9.13;;;;;;;;;;5015697;28;20263;-48
2021/11/25 01:49:20;;;;;;;15.07;9.63;;;;;;;;;;5014903;28;20422;-49
2021/11/25 01:51:46;;;;;;;15.10;9.20;;;;;;;;;;5015620;28;20406;-49
2021/11/25 01:54:12;;;;;;;11.53;9.13;;;;;;;;;;5015542;28;20405;-49
2021/11/25 01:56:39;;;;;;;13.95;9.43;;;;;;;;;;5015485;28;20775;-49
2021/11/25 01:59:05;;;;;;;14.85;9.30;;;;;;;;;;5014683;28;20220;-49
2021/11/25 02:01:34;;;;;;;11.50;9.43;;;;;;;;;;5014542;28;20683;-49
2021/11/25 02:04:00;;;;;;;10.90;9.23;;;;;;;;;;5014856;28;20423;-50
2021/11/25 02:06:27;;;;;;;13.57;9.45;;;;;;;;;;5014737;28;20221;-49
2021/11/25 02:08:53;;;;;;;15.80;8.88;;;;;;;;;;5013492;28;20195;-49
2021/11/25 02:11:19;;;;;;;14.20;10.13;;;;;;;;;;5015228;28;20169;-49
2021/11/25 02:13:45;;;;;;;14.40;9.43;;;;;;;;;;5015020;28;20414;-49
2021/11/25 02:16:11;;;;;;;13.97;10.53;;;;;;;;;;5015187;28;20168;-51
2021/11/25 02:18:38;;;;;;;20.90;10.20;;;;;;;;;;5014373;28;20419;-48
2021/11/25 02:21:05;;;;;;;14.70;9.70;;;;;;;;;;5014833;28;20549;-48
2021/11/25 02:23:31;;;;;;;23.30;10.00;;;;;;;;;;5014896;28;20258;-48
2021/11/25 02:25:58;;;;;;;13.85;9.40;;;;;;;;;;5014939;28;20262;-51
2021/11/25 02:28:28;;;;;;;13.52;9.05;;;;;;;;;;5014196;28;20186;-50
2021/11/25 02:30:54;;;;;;;13.77;9.23;;;;;;;;;;5015075;28;20558;-49
2021/11/25 02:33:21;;;;;;;15.13;8.75;;;;;;;;;;5014789;28;20219;-49
2021/11/25 02:35:47;;;;;;;20.05;9.65;;;;;;;;;;5015137;28;20182;-51
2021/11/25 02:38:14;;;;;;;10.55;9.00;;;;;;;;;;5013996;28;20192;-50
2021/11/25 02:40:43;;;;;;;17.15;9.43;;;;;;;;;;5014156;28;20168;-50
2021/11/25 02:43:11;;;;;;;17.75;10.60;;;;;;;;;;5014581;28;20177;-50
2021/11/25 02:45:46;;;;;;;12.50;9.60;;;;;;;;;;5014590;28;20702;-49
2021/11/25 02:48:13;;;;;;;11.05;8.95;;;;;;;;;;5013862;28;20561;-51
2021/11/25 02:50:39;;;;;;;12.60;9.35;;;;;;;;;;5014502;28;20237;-51
2021/11/25 02:53:05;;;;;;;13.55;9.80;;;;;;;;;;5014259;28;20176;-50
2021/11/25 02:55:31;;;;;;;13.02;9.00;;;;;;;;;;5014424;28;20172;-52
2021/11/25 02:57:57;;;;;;;11.97;9.73;;;;;;;;;;5013720;28;20184;-51
2021/11/25 03:00:23;;;;;;;11.10;9.60;;;;;;;;;;5014443;28;20844;-51
2021/11/25 03:02:56;;;;;;;14.50;9.90;;;;;;;;;;5014334;28;20462;-51
2021/11/25 03:05:23;;;;;;;18.08;10.45;;;;;;;;;;5014219;28;20406;-50
2021/11/25 03:07:49;;;;;;;12.43;10.43;;;;;;;;;;5013378;28;20173;-50
2021/11/25 03:10:15;;;;;;;12.00;9.63;;;;;;;;;;5014202;28;20276;-51
2021/11/25 03:12:41;;;;;;;17.10;8.50;;;;;;;;;;5014069;28;20937;-50
2021/11/25 03:15:07;;;;;;;12.38;10.20;;;;;;;;;;5014033;28;20407;-50
2021/11/25 03:17:33;;;;;;;15.77;10.85;;;;;;;;;;5013383;28;20168;-49
2021/11/25 03:20:00;;;;;;;13.90;10.30;;;;;;;;;;5013957;28;20587;-50
2021/11/25 03:22:26;;;;;;;13.90;10.18;;;;;;;;;;5013686;28;20204;-50
2021/11/25 03:24:55;;;;;;;16.40;10.57;;;;;;;;;;5013813;28;20259;-50
2021/11/25 03:27:21;;;;;;;13.40;10.23;;;;;;;;;;5013860;28;20790;-50
2021/11/25 03:29:47;;;;;;;12.47;9.33;;;;;;;;;;4995558;28;20286;-50
2021/11/25 03:32:13;;;;;;;14.27;9.57;;;;;;;;;;5013732;28;20415;-49
2021/11/25 03:34:39;;;;;;;12.83;10.07;;;;;;;;;;5013574;28;20415;-49
2021/11/25 03:37:05;;;;;;;12.47;9.27;;;;;;;;;;5013572;28;20418;-49
2021/11/25 03:39:31;;;;;;;10.20;8.40;;;;;;;;;;5012839;28;20939;-49
2021/11/25 03:41:57;;;;;;;13.60;10.27;;;;;;;;;;5013496;28;20461;-50
2021/11/25 03:44:22;;;;;;;14.37;10.73;;;;;;;;;;5013387;28;20164;-50
2021/11/25 03:46:48;;;;;;;14.00;10.40;;;;;;;;;;5013452;28;20469;-49
2021/11/25 03:49:14;;;;;;;15.93;10.07;;;;;;;;;;5012592;28;20419;-50
2021/11/25 03:51:41;;;;;;;17.63;10.30;;;;;;;;;;5012569;28;20905;-50
2021/11/25 03:54:07;;;;;;;12.90;9.82;;;;;;;;;;5013407;28;20562;-50
2021/11/25 03:56:33;;;;;;;14.07;9.48;;;;;;;;;;5013293;28;20176;-49
2021/11/25 03:59:00;;;;;;;11.48;9.48;;;;;;;;;;5012549;28;20266;-51
2021/11/25 04:01:26;;;;;;;10.27;8.45;;;;;;;;;;5013081;28;20206;-50
2021/11/25 04:03:52;;;;;;;15.70;10.10;;;;;;;;;;5013079;28;20256;-50
2021/11/25 04:06:18;;;;;;;14.10;10.10;;;;;;;;;;5013043;28;20461;-49
2021/11/25 04:08:44;;;;;;;16.15;10.45;;;;;;;;;;5012339;28;20505;-49
2021/11/25 04:11:11;;;;;;;23.53;10.87;;;;;;;;;;5013047;28;20652;-50
2021/11/25 04:13:37;;;;;;;23.38;11.65;;;;;;;;;;5012891;28;20406;-51
2021/11/25 04:16:04;;;;;;;14.33;10.13;;;;;;;;;;5012990;28;20176;-49
2021/11/25 04:18:30;;;;;;;14.05;10.80;;;;;;;;;;5012060;28;20850;-50
2021/11/25 04:20:55;;;;;;;16.40;10.40;;;;;;;;;;5012313;28;20204;-51
2021/11/25 04:23:21;;;;;;;15.63;11.30;;;;;;;;;;5013006;28;20391;-50
2021/11/25 04:25:48;;;;;;;16.77;11.40;;;;;;;;;;5012933;28;20461;-50
2021/11/25 04:28:14;;;;;;;17.27;11.82;;;;;;;;;;5011933;28;20437;-50
2021/11/25 04:35:51;;;;;;;20.75;11.63;;;;;;;;;;5012655;28;20179;-50
2021/11/25 04:38:18;;;;;;;26.08;12.70;;;;;;;;;;5011885;28;20271;-51
2021/11/25 04:41:04;;;;;;;13.35;11.43;;;;;;;;;;5012436;28;20172;-50
2021/11/25 04:43:32;;;;;;;18.40;12.10;;;;;;;;;;5012386;28;20271;-50
2021/11/25 04:45:58;;;;;;;21.17;11.75;;;;;;;;;;5012499;28;20164;-50
2021/11/25 04:48:26;;;;;;;15.20;11.00;;;;;;;;;;5011654;28;20184;-50
2021/11/25 04:50:52;;;;;;;16.65;10.70;;;;;;;;;;5012368;28;20593;-51
2021/11/25 04:53:18;;;;;;;16.02;10.20;;;;;;;;;;5012296;28;20176;-50
2021/11/25 04:55:44;;;;;;;15.90;11.30;;;;;;;;;;5012366;28;20176;-51
2021/11/25 04:58:12;;;;;;;14.00;11.10;;;;;;;;;;5011969;28;20773;-51
2021/11/25 05:00:38;;;;;;;14.55;10.27;;;;;;;;;;5012159;28;20407;-50
2021/11/25 05:03:05;;;;;;;15.65;12.18;;;;;;;;;;5012082;28;20247;-50
2021/11/25 05:05:31;;;;;;;15.68;11.23;;;;;;;;;;5012136;28;20175;-51
2021/11/25 05:07:57;;;;;;;14.75;10.85;;;;;;;;;;5011905;28;20543;-50
2021/11/25 05:10:23;;;;;;;17.73;11.87;;;;;;;;;;5012691;28;20243;-52
2021/11/25 05:12:49;;;;;;;17.57;11.77;;;;;;;;;;5012015;28;20750;-50
2021/11/25 05:15:16;;;;;;;16.05;10.98;;;;;;;;;;5012057;28;20407;-49
2021/11/25 05:17:42;;;;;;;14.30;10.93;;;;;;;;;;5011373;28;20255;-51
2021/11/25 05:20:09;;;;;;;13.68;10.25;;;;;;;;;;5011989;28;20551;-50
2021/11/25 05:22:36;;;;;;;11.82;9.45;;;;;;;;;;5012009;28;20196;-50
2021/11/25 05:25:02;;;;;;;17.52;11.68;;;;;;;;;;5011922;28;20164;-51
2021/11/25 05:27:31;;;;;;;15.80;11.63;;;;;;;;;;5011252;28;20176;-49
2021/11/25 05:29:57;;;;;;;13.80;10.15;;;;;;;;;;5011957;28;20408;-51
2021/11/25 05:32:23;;;;;;;14.90;10.50;;;;;;;;;;5011956;28;20173;-50
2021/11/25 05:34:49;;;;;;;36.08;12.35;;;;;;;;;;5011775;28;20407;-50
2021/11/25 05:37:16;;;;;;;17.40;11.93;;;;;;;;;;5012305;28;20256;-50
2021/11/25 05:39:42;;;;;;;12.40;10.23;;;;;;;;;;5011049;28;20793;-49
2021/11/25 05:42:08;;;;;;;15.70;11.40;;;;;;;;;;5012029;28;20202;-49
2021/11/25 05:44:37;;;;;;;19.27;11.15;;;;;;;;;;5011938;28;20395;-50
2021/11/25 05:47:04;;;;;;;18.83;11.27;;;;;;;;;;5012075;28;20588;-49
2021/11/25 05:49:32;;;;;;;18.13;11.98;;;;;;;;;;5011065;28;20188;-50
2021/11/25 05:51:58;;;;;;;18.60;12.20;;;;;;;;;;5011804;28;20172;-50
2021/11/25 05:54:28;;;;;;;22.27;12.40;;;;;;;;;;5011601;28;20180;-49
2021/11/25 05:56:54;;;;;;;13.50;10.25;;;;;;;;;;5011713;28;20407;-50
2021/11/25 05:59:20;;;;;;;23.87;12.50;;;;;;;;;;5010990;28;20191;-49
2021/11/25 06:01:46;;;;;;;15.20;11.53;;;;;;;;;;5011571;28;20954;-49
2021/11/25 06:04:12;;;;;;;18.23;12.27;;;;;;;;;;5011535;28;20400;-49
2021/11/25 06:06:39;;;;;;;18.15;12.48;;;;;;;;;;5011603;28;20399;-49
2021/11/25 06:09:05;;;;;;;13.98;11.00;;;;;;;;;;5011419;28;20195;-50
2021/11/25 06:11:31;;;;;;;18.23;11.90;;;;;;;;;;5011547;28;20168;-49
2021/11/25 06:13:57;;;;;;;16.70;12.37;;;;;;;;;;5011528;28;20410;-49
2021/11/25 06:16:23;;;;;;;16.27;12.10;;;;;;;;;;5014365;28;20399;-50
2021/11/25 06:18:49;;;;;;;16.83;12.52;;;;;;;;;;5014175;28;20947;-50
2021/11/25 06:21:15;;;;;;;18.27;12.30;;;;;;;;;;5015053;28;20204;-49
2021/11/25 06:23:41;;;;;;;16.20;11.67;;;;;;;;;;5014886;28;20392;-49
2021/11/25 06:26:07;;;;;;;17.30;12.40;;;;;;;;;;5007992;28;20411;-50
2021/11/25 06:28:33;;;;;;;18.17;11.52;;;;;;;;;;5013922;28;20706;-49
2021/11/25 06:30:59;;;;;;;20.25;13.80;;;;;;;;;;5014836;28;20172;-49
2021/11/25 06:33:25;;;;;;;18.65;13.00;;;;;;;;;;5014784;28;20592;-49
2021/11/25 06:35:52;;;;;;;15.55;12.48;;;;;;;;;;5013925;28;20176;-49
2021/11/25 06:38:19;;;;;;;16.52;12.95;;;;;;;;;;5013602;28;20193;-49
2021/11/25 06:40:48;;;;;;;16.27;11.00;;;;;;;;;;5014681;28;20263;-50
2021/11/25 06:43:15;;;;;;;16.48;12.00;;;;;;;;;;5014590;28;20639;-49
2021/11/25 06:45:42;;;;;;;26.88;12.80;;;;;;;;;;5014338;28;20180;-50
2021/11/25 06:48:14;;;;;;;21.00;12.65;;;;;;;;;;5013863;28;20699;-48
2021/11/25 06:50:40;;;;;;;14.80;12.15;;;;;;;;;;5014318;28;20268;-49
2021/11/25 06:53:07;;;;;;;19.88;12.75;;;;;;;;;;5014482;28;20190;-49
2021/11/25 06:55:33;;;;;;;18.85;14.18;;;;;;;;;;5014494;28;20262;-49
2021/11/25 06:57:59;;;;;;;21.20;13.35;;;;;;;;;;5013721;28;20684;-50
2021/11/25 07:00:26;;;;;;;18.20;12.67;;;;;;;;;;5014361;28;20258;-50
2021/11/25 07:02:53;;;;;;;18.13;13.07;;;;;;;;;;5014178;28;20459;-49
2021/11/25 07:05:20;;;;;;;19.10;11.80;;;;;;;;;;5014168;28;20194;-51
2021/11/25 07:07:49;;;;;;;21.63;13.00;;;;;;;;;;5013458;28;20230;-49
2021/11/25 07:10:16;;;;;;;16.88;12.90;;;;;;;;;;5014141;28;20244;-50
2021/11/25 07:12:45;;;;;;;15.43;12.35;;;;;;;;;;5013980;28;20215;-50
2021/11/25 07:15:12;;;;;;;20.65;13.88;;;;;;;;;;5014120;28;20168;-50
2021/11/25 07:17:38;;;;;;;15.80;11.20;;;;;;;;;;5013138;28;20177;-49
2021/11/25 07:20:06;;;;;;;16.90;12.40;;;;;;;;;;5013923;28;20168;-49
2021/11/25 07:22:33;;;;;;;16.27;12.38;;;;;;;;;;5013868;28;20231;-50
2021/11/25 07:25:00;;;;;;;15.32;11.75;;;;;;;;;;5013805;28;20164;-49
2021/11/25 07:27:26;;;;;;;20.73;13.30;;;;;;;;;;5012074;28;20183;-48
2021/11/25 07:29:52;;;;;;;17.20;12.40;;;;;;;;;;5013709;28;20680;-50
2021/11/25 07:32:18;;;;;;;17.27;12.35;;;;;;;;;;5013628;28;20491;-49
2021/11/25 07:34:44;;;;;;;19.27;12.18;;;;;;;;;;5013674;28;20592;-50
2021/11/25 07:37:10;;;;;;;21.43;13.23;;;;;;;;;;5013648;28;20172;-49
2021/11/25 07:39:38;;;;;;;17.92;13.10;;;;;;;;;;5012913;28;20423;-49
2021/11/25 07:42:04;;;;;;;16.75;13.27;;;;;;;;;;5013598;28;20206;-49
2021/11/25 07:44:30;;;;;;;18.50;12.45;;;;;;;;;;5013481;28;20165;-49
2021/11/25 07:46:56;;;;;;;18.88;12.98;;;;;;;;;;5013318;28;20171;-50
2021/11/25 07:49:32;;;;;;;20.45;13.18;;;;;;;;;;5012953;28;20196;-48
2021/11/25 07:52:00;;;;;;;15.88;12.10;;;;;;;;;;5013403;28;20247;-49
2021/11/25 07:54:27;;;;;;;19.73;12.55;;;;;;;;;;5013309;28;20174;-50
2021/11/25 07:56:53;;;;;;;21.35;12.57;;;;;;;;;;5013281;28;20183;-49
2021/11/25 07:59:19;;;;;;;23.08;14.52;;;;;;;;;;5012413;28;20242;-49
2021/11/25 08:01:45;;;;;;;26.17;14.90;;;;;;;;;;5013065;28;20299;-49
2021/11/25 08:04:11;;;;;;;23.27;15.40;;;;;;;;;;5013110;28;20168;-49
2021/11/25 08:06:43;;;;;;;21.27;14.70;;;;;;;;;;5013131;28;20171;-51
2021/11/25 08:09:09;;;;;;;20.60;12.98;;;;;;;;;;5011771;28;20200;-49
2021/11/25 08:11:35;;;;;;;21.70;15.43;;;;;;;;;;5013324;28;20243;-49
2021/11/25 08:14:01;;;;;;;19.43;14.57;;;;;;;;;;5012898;28;20465;-51
2021/11/25 08:16:27;;;;;;;20.13;13.70;;;;;;;;;;5012868;28;20431;-50
2021/11/25 08:18:53;;;;;;;21.80;13.87;;;;;;;;;;5012601;28;20482;-50
2021/11/25 08:21:22;;;;;;;19.43;14.50;;;;;;;;;;5012616;28;20463;-49
2021/11/25 08:23:48;;;;;;;20.13;14.32;;;;;;;;;;5012757;28;20400;-51
2021/11/25 08:26:13;;;;;;;21.30;13.43;;;;;;;;;;5012849;28;20659;-50
2021/11/25 08:28:41;;;;;;;17.87;13.33;;;;;;;;;;5012028;28;20822;-51
2021/11/25 08:31:07;;;;;;;16.08;11.77;;;;;;;;;;5012649;28;20487;-51
2021/11/25 08:33:33;;;;;;;17.17;11.67;;;;;;;;;;5012612;28;20255;-50
2021/11/25 08:36:00;;;;;;;20.27;12.45;;;;;;;;;;5013136;28;20813;-50
2021/11/25 08:38:28;;;;;;;22.20;13.30;;;;;;;;;;5011540;28;20186;-49
2021/11/25 08:40:55;;;;;;;19.23;13.47;;;;;;;;;;5012445;28;20495;-49
2021/11/25 08:43:21;;;;;;;20.30;13.37;;;;;;;;;;4994797;28;20502;-49
2021/11/25 08:45:47;;;;;;;19.67;14.00;;;;;;;;;;5012456;28;20411;-49
2021/11/25 08:48:13;;;;;;;17.70;12.40;;;;;;;;;;5011698;28;20428;-49
2021/11/25 08:50:40;;;;;;;16.90;13.77;;;;;;;;;;5012349;28;20402;-49
2021/11/25 08:53:06;;;;;;;21.70;13.20;;;;;;;;;;5012305;28;20416;-49
2021/11/25 08:55:35;;;;;;;20.07;13.83;;;;;;;;;;5012675;28;20408;-50
2021/11/25 08:58:01;;;;;;;18.60;13.60;;;;;;;;;;5011620;28;20436;-50
2021/11/25 09:00:27;;;;;;;18.93;13.67;;;;;;;;;;5012253;28;20406;-50
2021/11/25 09:02:53;;;;;;;18.30;12.90;;;;;;;;;;5012645;28;20473;-50
2021/11/25 09:05:19;;;;;;;21.40;14.67;;;;;;;;;;5012341;28;20443;-51
2021/11/25 09:07:45;;;;;;;19.93;14.53;;;;;;;;;;5011443;28;20439;-51
2021/11/25 09:10:11;;;;;;;23.73;15.50;;;;;;;;;;5009916;28;20539;-48
2021/11/25 09:12:37;;;;;;;18.73;13.43;;;;;;;;;;5012031;28;20407;-51
2021/11/25 09:15:04;;;;;;;16.43;12.90;;;;;;;;;;5011942;28;20498;-48
2021/11/25 09:17:29;;;;;;;15.90;13.10;;;;;;;;;;5011366;28;20434;-51
2021/11/25 09:19:56;;;;;;;17.03;12.63;;;;;;;;;;5011618;28;20663;-49
2021/11/25 09:22:22;;;;;;;15.60;13.17;;;;;;;;;;5011794;28;20547;-49
2021/11/25 09:24:48;;;;;;;18.63;12.27;;;;;;;;;;5012155;28;20482;-50
2021/11/25 09:27:14;;;;;;;14.83;12.63;;;;;;;;;;5011928;28;20410;-51
2021/11/25 09:29:40;;;;;;;14.80;12.57;;;;;;;;;;5011093;28;20486;-49
2021/11/25 09:32:06;;;;;;;15.27;12.30;;;;;;;;;;5011799;28;20414;-49
2021/11/25 09:34:32;;;;;;;16.77;13.70;;;;;;;;;;5011939;28;20468;-49
2021/11/25 09:36:59;;;;;;;19.33;13.63;;;;;;;;;;5011847;28;20471;-49
2021/11/25 09:39:25;;;;;;;16.83;13.27;;;;;;;;;;5011451;28;20435;-49
2021/11/25 09:41:52;;;;;;;17.90;12.77;;;;;;;;;;5011749;28;20515;-48
2021/11/25 09:44:18;;;;;;;17.10;13.53;;;;;;;;;;5011721;28;20410;-49
2021/11/25 09:46:45;;;;;;;16.03;14.10;;;;;;;;;;5011664;28;20408;-49
2021/11/25 09:49:13;;;;;;;26.83;14.37;;;;;;;;;;5011012;28;20426;-48
2021/11/25 09:51:39;;;;;;;22.20;14.97;;;;;;;;;;5015169;28;20406;-49
2021/11/25 09:54:05;;;;;;;23.83;15.43;;;;;;;;;;5015569;28;20915;-49
2021/11/25 09:56:31;;;;;;;24.87;14.80;;;;;;;;;;5015595;28;20407;-49
2021/11/25 09:58:57;;;;;;;20.40;14.23;;;;;;;;;;5014773;28;20428;-49
2021/11/25 10:01:24;;;;;;;24.10;15.17;;;;;;;;;;5015314;28;20444;-50
2021/11/25 10:03:50;;;;;;;17.80;13.80;;;;;;;;;;5015329;28;20902;-48
2021/11/25 10:06:18;;;;;;;22.63;14.53;;;;;;;;;;5015618;28;20911;-48
2021/11/25 10:08:45;;;;;;;27.43;15.63;;;;;;;;;;5014744;28;20427;-49
2021/11/25 10:11:20;;;;;;;24.45;15.60;;;;;;;;;;5015295;28;20399;-49
2021/11/25 10:13:48;;;;;;;21.48;15.27;;;;;;;;;;5015007;28;20672;-49
2021/11/25 10:16:16;;;;;;;22.43;14.90;;;;;;;;;;5015243;28;20179;-49
2021/11/25 10:18:43;;;;;;;23.23;15.55;;;;;;;;;;5014470;28;20490;-49
2021/11/25 10:21:14;;;;;;;24.83;17.40;;;;;;;;;;5014972;28;20204;-48
2021/11/25 10:23:41;;;;;;;31.65;16.45;;;;;;;;;;5015024;28;20399;-50
2021/11/25 10:26:09;;;;;;;21.60;16.45;;;;;;;;;;5015071;28;20171;-49
2021/11/25 10:28:40;;;;;;;29.17;19.67;;;;;;;;;;5014182;28;20180;-49
2021/11/25 10:31:07;;;;;;;21.42;16.65;;;;;;;;;;5015024;28;20699;-48
2021/11/25 10:33:36;;;;;;;23.90;16.58;;;;;;;;;;5014838;28;20164;-51
2021/11/25 10:41:22;;;;;;;30.77;19.50;;;;;;;;;;5014772;28;21002;-49
2021/11/25 10:44:01;;;;;;;30.77;19.45;;;;;;;;;;5014823;28;20169;-49
2021/11/25 10:46:57;;;;;;;27.20;18.30;;;;;;;;;;5008475;28;20184;-51
2021/11/25 10:49:33;;;;;;;27.98;18.33;;;;;;;;;;4996892;28;20215;-48
2021/11/25 10:52:01;;;;;;;27.88;20.20;;;;;;;;;;5014600;28;20176;-49
2021/11/25 10:54:27;;;;;;;30.65;19.40;;;;;;;;;;5014345;28;20222;-50
2021/11/25 10:56:56;;;;;;;30.85;19.00;;;;;;;;;;5014214;28;20512;-49
2021/11/25 10:59:39;;;;;;;28.70;18.67;;;;;;;;;;5013534;28;20246;-49
2021/11/25 11:02:20;;;;;;;33.53;18.80;;;;;;;;;;5012955;28;20246;-50
2021/11/25 11:04:47;;;;;;;32.00;18.33;;;;;;;;;;5014271;28;20540;-51
2021/11/25 11:07:23;;;;;;;32.03;20.20;;;;;;;;;;5014296;28;20165;-49
2021/11/25 11:09:49;;;;;;;31.48;19.45;;;;;;;;;;5013918;28;20211;-50
2021/11/25 11:12:18;;;;;;;29.77;19.30;;;;;;;;;;5013864;28;20644;-50
2021/11/25 11:14:49;;;;;;;29.08;19.30;;;;;;;;;;5014114;28;20922;-49
2021/11/25 11:18:42;;;;;;;31.88;19.75;;;;;;;;;;5014103;28;20618;-49
2021/11/25 11:20:11;;;;;;;28.60;19.13;;;;;;;;;;5006495;28;20212;-50
2021/11/25 11:22:37;;;;;;;31.73;19.63;;;;;;;;;;5013914;28;20245;-51
2021/11/25 11:25:08;;;;;;;29.88;19.95;;;;;;;;;;5013850;28;20164;-51
2021/11/25 11:27:34;;;;;;;30.50;19.90;;;;;;;;;;5013191;28;20647;-49
2021/11/25 11:30:00;;;;;;;27.40;20.20;;;;;;;;;;5013908;28;20223;-51
2021/11/25 11:32:26;;;;;;;29.13;20.30;;;;;;;;;;5013830;28;20408;-52
2021/11/25 11:34:53;;;;;;;29.98;19.10;;;;;;;;;;5013739;28;20426;-51
2021/11/25 11:37:19;;;;;;;23.52;17.27;;;;;;;;;;5013628;28;20176;-50
2021/11/25 11:39:47;;;;;;;29.13;18.63;;;;;;;;;;5012995;28;20668;-50
2021/11/25 11:42:13;;;;;;;28.45;18.35;;;;;;;;;;5013520;28;20213;-50
2021/11/25 11:44:41;;;;;;;25.25;16.20;;;;;;;;;;5013558;28;20168;-51
2021/11/25 11:47:08;;;;;;;28.88;19.77;;;;;;;;;;5013604;28;20164;-50
2021/11/25 11:49:35;;;;;;;30.33;19.00;;;;;;;;;;5012748;28;20200;-50
2021/11/25 11:52:07;;;;;;;28.10;16.93;;;;;;;;;;5013479;28;20176;-49
2021/11/25 11:54:41;;;;;;;26.50;18.30;;;;;;;;;;5013298;28;20403;-50
2021/11/25 11:57:26;;;;;;;32.28;19.45;;;;;;;;;;5013293;28;20178;-50
2021/11/25 11:59:52;;;;;;;28.30;18.70;;;;;;;;;;5013206;28;20258;-50
2021/11/25 12:02:38;;;;;;;29.13;17.50;;;;;;;;;;4995718;28;20208;-50
2021/11/25 12:05:04;;;;;;;32.63;20.67;;;;;;;;;;5013134;28;20430;-50
2021/11/25 12:07:30;;;;;;;31.75;21.50;;;;;;;;;;5012389;28;20211;-51
2021/11/25 12:09:56;;;;;;;31.63;19.63;;;;;;;;;;4995430;28;20203;-50
2021/11/25 12:12:23;;;;;;;30.63;19.23;;;;;;;;;;5012631;28;20486;-49
2021/11/25 12:14:50;;;;;;;30.02;19.25;;;;;;;;;;5012803;28;20260;-50
2021/11/25 12:17:23;;;;;;;30.50;19.37;;;;;;;;;;5013012;28;20647;-49
2021/11/25 12:19:49;;;;;;;29.65;19.80;;;;;;;;;;5012654;28;20442;-48
2021/11/25 12:22:15;;;;;;;29.30;19.70;;;;;;;;;;5012766;28;20242;-47
2021/11/25 12:24:49;;;;;;;29.17;19.83;;;;;;;;;;5012824;28;20884;-48
2021/11/25 12:27:18;;;;;;;25.35;18.33;;;;;;;;;;5012714;28;20492;-48
2021/11/25 12:29:55;;;;;;;27.95;17.92;;;;;;;;;;5012088;28;20181;-49
2021/11/25 12:32:40;;;;;;;28.70;17.77;;;;;;;;;;5012786;28;20230;-48
2021/11/25 12:35:12;;;;;;;29.50;18.58;;;;;;;;;;5012667;28;20221;-49
2021/11/25 12:37:47;;;;;;;29.08;19.52;;;;;;;;;;5011902;28;20173;-49
2021/11/25 12:40:16;;;;;;;26.92;17.60;;;;;;;;;;5012574;28;20213;-49
2021/11/25 12:42:46;;;;;;;32.50;18.70;;;;;;;;;;5012550;28;20199;-48
2021/11/25 12:45:31;;;;;;;30.98;19.77;;;;;;;;;;5012611;28;20172;-49
2021/11/25 12:48:06;;;;;;;25.67;17.90;;;;;;;;;;5011752;28;20208;-48
2021/11/25 12:50:42;;;;;;;31.58;17.48;;;;;;;;;;5012511;28;20188;-51
2021/11/25 12:53:13;;;;;;;26.63;16.92;;;;;;;;;;5012057;28;20197;-49
2021/11/25 12:55:39;;;;;;;32.80;18.75;;;;;;;;;;5012196;28;20532;-48
2021/11/25 12:58:06;;;;;;;31.33;18.02;;;;;;;;;;4992564;28;20196;-48
2021/11/25 13:00:33;;;;;;;27.02;17.83;;;;;;;;;;4992643;28;20700;-49
2021/11/25 13:03:18;;;;;;;27.52;16.80;;;;;;;;;;5001629;28;20676;-48
2021/11/25 13:05:44;;;;;;;27.80;19.02;;;;;;;;;;5012278;28;20737;-49
2021/11/25 13:08:12;;;;;;;26.70;18.15;;;;;;;;;;5011406;28;20220;-49
2021/11/25 13:10:42;;;;;;;26.53;18.13;;;;;;;;;;5012064;28;20236;-48
2021/11/25 13:13:10;;;;;;;28.63;19.10;;;;;;;;;;5012026;28;20411;-48
2021/11/25 13:15:36;;;;;;;28.67;18.77;;;;;;;;;;5012088;28;20632;-48
2021/11/25 13:18:03;;;;;;;30.85;19.27;;;;;;;;;;5011360;28;20192;-49
2021/11/25 13:20:42;;;;;;;29.60;20.70;;;;;;;;;;5011987;28;20184;-48
2021/11/25 13:23:08;;;;;;;29.13;19.02;;;;;;;;;;5011857;28;20282;-50
2021/11/25 13:25:34;;;;;;;40.10;21.67;;;;;;;;;;5015081;28;20171;-48
2021/11/25 13:28:00;;;;;;;33.40;21.43;;;;;;;;;;5015488;28;20188;-49
2021/11/25 13:30:26;;;;;;;28.13;18.87;;;;;;;;;;5016048;28;20918;-51
2021/11/25 13:32:52;;;;;;;28.77;19.53;;;;;;;;;;5017283;28;20404;-52
2021/11/25 13:35:19;;;;;;;34.75;19.35;;;;;;;;;;5015000;28;20431;-51
2021/11/25 13:37:54;;;;;;;32.73;20.70;;;;;;;;;;5014239;28;20283;-49
2021/11/25 13:40:21;;;;;;;27.97;19.00;;;;;;;;;;5014476;28;20875;-49
2021/11/25 13:42:50;;;;;;;39.57;22.27;;;;;;;;;;5013789;28;20477;-50
2021/11/25 13:45:21;;;;;;;32.30;21.13;;;;;;;;;;5013079;28;20877;-48
2021/11/25 13:47:48;;;;;;;30.93;20.67;;;;;;;;;;5013085;28;20462;-49
2021/11/25 13:50:15;;;;;;;38.75;22.25;;;;;;;;;;5014917;28;20908;-48
2021/11/25 13:52:44;;;;;;;36.37;23.60;;;;;;;;;;5015902;28;20173;-48
2021/11/25 13:55:21;;;;;;;39.00;22.77;;;;;;;;;;5015489;28;20486;-48
2021/11/25 13:57:47;;;;;;;35.33;22.47;;;;;;;;;;5014839;28;20405;-49
2021/11/25 14:00:15;;;;;;;37.65;24.65;;;;;;;;;;5015568;28;20407;-48
2021/11/25 14:02:41;;;;;;;39.25;24.83;;;;;;;;;;5015346;28;20693;-48
2021/11/25 14:05:08;;;;;;;37.97;22.90;;;;;;;;;;5015156;28;20179;-50
2021/11/25 14:07:34;;;;;;;38.80;24.63;;;;;;;;;;5014713;28;20771;-48
2021/11/25 14:10:16;;;;;;;45.75;24.67;;;;;;;;;;5015349;28;20203;-48
2021/11/25 14:12:43;;;;;;;37.00;23.10;;;;;;;;;;5015299;28;20168;-49
2021/11/25 14:15:10;;;;;;;46.50;26.10;;;;;;;;;;5015599;28;20275;-48
2021/11/25 14:17:47;;;;;;;40.25;21.83;;;;;;;;;;5014309;28;20195;-48
2021/11/25 14:20:23;;;;;;;40.10;25.08;;;;;;;;;;5014667;28;20220;-48
2021/11/25 14:22:49;;;;;;;47.15;26.70;;;;;;;;;;5015005;28;20203;-48
2021/11/25 14:25:22;;;;;;;41.40;24.90;;;;;;;;;;5015046;28;20169;-48
2021/11/25 14:30:33;;;;;;;44.72;25.15;;;;;;;;;;5015243;28;20667;-50
2021/11/25 14:33:01;;;;;;;38.15;25.13;;;;;;;;;;5014836;28;20179;-48
2021/11/25 14:35:28;;;;;;;38.55;25.13;;;;;;;;;;5015681;28;20223;-51
2021/11/25 14:38:07;;;;;;;40.20;25.33;;;;;;;;;;5015118;28;20195;-49